Date,TemperatureHighF,TemperatureAvgF,TemperatureLowF,DewpointHighF,DewpointAvgF,DewpointLowF,HumidityHigh,HumidityAvg,HumidityLow,PressureMaxIn,PressureMinIn,WindSpeedMaxMPH,WindSpeedAvgMPH,GustSpeedMaxMPH,PrecipitationSumIn
2013-8-1,69.9,61.3,55.7,57.1,54.9,53.0,91,80,62,30.04,30.01,2,0,5,0.00
2013-8-2,61.1,59.8,58.2,58.8,56.7,54.4,94,90,83,30.11,30.03,1,0,6,0.13
2013-8-3,85.4,67.9,58.7,60.8,58.0,55.7,95,74,41,30.11,30.03,3,0,11,0.00
2013-8-4,87.7,69.6,55.6,61.4,57.8,53.6,94,69,41,30.04,29.92,4,1,11,0.00
2013-8-5,93.6,73.0,56.7,61.6,58.1,54.1,92,63,33,29.99,29.90,4,0,10,0.00
2013-8-6,93.0,70.5,54.5,59.4,55.0,51.8,91,61,29,29.98,29.88,3,0,10,0.00
2013-8-7,92.2,71.0,55.0,59.3,55.8,52.4,93,62,31,30.00,29.92,3,0,9,0.00
2013-8-8,85.4,66.8,57.1,61.1,56.9,54.6,93,73,44,30.02,29.91,2,0,9,0.00
2013-8-9,86.3,70.3,55.7,60.1,57.0,53.4,93,65,40,29.94,29.81,3,0,9,0.00
2013-8-10,79.3,65.9,57.6,63.4,59.5,55.9,95,81,58,29.99,29.87,3,0,9,0.18
2013-8-11,78.9,65.9,57.0,58.7,55.3,53.5,89,70,44,30.04,29.96,3,0,10,0.00
2013-8-12,79.1,66.1,57.8,57.8,55.8,54.1,88,71,45,30.06,29.98,3,0,11,0.00
2013-8-13,84.0,68.3,56.3,57.9,55.6,53.4,91,66,39,30.08,29.90,3,0,10,0.00
2013-8-14,79.3,66.2,56.2,61.6,57.1,52.4,91,74,47,29.94,29.88,1,0,5,0.02
2013-8-15,69.4,65.1,60.7,64.5,62.2,59.0,94,90,84,29.97,29.90,0,0,3,0.03
2013-8-16,85.3,70.4,59.4,65.6,59.7,50.4,97,72,35,29.99,29.91,4,0,12,0.00
2013-8-17,78.8,68.3,62.3,61.7,58.2,55.1,82,71,54,30.05,29.98,4,1,13,0.00
2013-8-18,80.2,66.7,58.7,60.3,56.6,52.9,90,71,51,30.10,30.05,4,1,13,0.00
2013-8-19,85.5,66.8,57.5,59.2,55.4,51.4,88,68,41,30.09,30.04,3,0,11,0.00
2013-8-20,82.5,68.1,58.8,56.8,52.5,49.4,79,59,36,30.14,30.05,4,1,12,0.00
2013-8-21,84.2,68.6,54.4,56.1,52.4,48.3,83,58,38,30.07,29.91,5,1,13,0.00
2013-8-22,86.8,71.3,55.7,57.1,54.3,50.5,84,57,35,29.92,29.77,5,0,11,0.00
2013-8-23,74.2,65.9,60.1,58.2,56.5,54.8,86,73,55,29.86,29.80,3,1,9,0.00
2013-8-24,81.2,66.0,59.8,58.9,55.8,52.9,86,71,42,29.90,29.83,3,0,12,0.00
2013-8-25,78.6,65.7,56.0,57.7,54.5,51.4,88,69,40,29.92,29.84,3,0,11,0.01
2013-8-26,76.6,65.5,59.3,59.4,56.3,52.5,87,73,46,29.93,29.83,2,0,7,0.03
2013-8-27,80.9,68.7,60.7,61.1,57.8,53.1,88,70,48,29.93,29.76,3,0,13,0.00
2013-8-28,80.7,69.7,59.1,64.7,60.5,55.9,96,74,52,29.87,29.81,1,0,4,0.17
2013-8-29,73.7,66.3,62.9,66.2,63.1,59.2,96,90,73,29.99,29.82,2,0,10,0.36
2013-8-30,82.3,68.4,60.7,61.9,57.7,54.1,92,71,39,30.13,29.99,4,1,12,0.01
2013-8-31,84.6,67.6,55.8,60.0,56.8,53.4,94,70,43,30.06,29.82,4,1,12,0.00